createdAt,value
2018-06-17T00:01:03.218Z,22.40
2018-06-17T00:03:31.354Z,17.60
2018-06-17T00:05:59.857Z,19.17
2018-06-17T00:08:28.266Z,15.70
2018-06-17T00:10:56.709Z,15.00
2018-06-17T00:13:25.145Z,19.67
2018-06-17T00:15:53.286Z,20.23
2018-06-17T00:18:21.718Z,17.20
2018-06-17T00:20:50.154Z,20.87
2018-06-17T00:23:18.280Z,17.60
2018-06-17T00:25:46.940Z,19.07
2018-06-17T00:28:15.354Z,17.57
2018-06-17T00:30:43.778Z,15.80
2018-06-17T00:33:11.924Z,19.43
2018-06-17T00:35:40.376Z,17.83
2018-06-17T00:38:08.477Z,16.80
2018-06-17T00:40:36.972Z,17.07
2018-06-17T00:43:05.395Z,21.77
2018-06-17T00:45:33.572Z,21.17
2018-06-17T00:48:01.967Z,20.23
2018-06-17T00:50:30.070Z,17.37
2018-06-17T00:52:58.185Z,18.50
2018-06-17T00:55:26.397Z,18.97
2018-06-17T00:57:54.523Z,19.80
2018-06-17T01:00:23.548Z,18.10
2018-06-17T01:02:52.007Z,22.10
2018-06-17T01:05:20.429Z,16.53
2018-06-17T01:07:48.556Z,20.80
2018-06-17T01:10:16.645Z,18.40
2018-06-17T01:12:45.077Z,27.60
2018-06-17T01:15:13.517Z,19.67
2018-06-17T01:17:41.989Z,20.77
2018-06-17T01:20:10.412Z,22.40
2018-06-17T01:22:38.976Z,24.83
2018-06-17T01:25:07.451Z,23.50
2018-06-17T01:27:35.912Z,24.43
2018-06-17T01:30:04.223Z,19.10
2018-06-17T01:32:32.345Z,23.23
2018-06-17T01:35:00.446Z,25.83
2018-06-17T01:37:28.569Z,22.00
2018-06-17T01:39:57.001Z,24.73
2018-06-17T01:42:25.405Z,24.33
2018-06-17T01:44:53.527Z,19.33
2018-06-17T01:47:21.976Z,21.43
2018-06-17T01:49:50.379Z,23.83
2018-06-17T01:52:18.483Z,21.70
2018-06-17T01:54:46.999Z,23.97
2018-06-17T01:57:15.452Z,26.30
2018-06-17T01:59:43.600Z,22.23
2018-06-17T02:02:11.710Z,25.37
2018-06-17T02:04:45.285Z,25.83
2018-06-17T02:07:19.049Z,24.83
2018-06-17T02:09:52.704Z,26.17
2018-06-17T02:12:20.823Z,22.77
2018-06-17T02:14:57.135Z,24.50
2018-06-17T02:17:26.400Z,26.80
2018-06-17T02:19:55.158Z,23.87
2018-06-17T02:22:23.521Z,24.87
2018-06-17T02:24:51.946Z,29.93
2018-06-17T02:27:20.346Z,25.57
2018-06-17T02:29:48.495Z,25.27
2018-06-17T02:32:16.617Z,24.00
2018-06-17T02:34:44.768Z,25.53
2018-06-17T02:37:13.210Z,25.60
2018-06-17T02:39:41.714Z,24.53
2018-06-17T02:42:10.518Z,21.07
2018-06-17T02:44:38.826Z,23.37
2018-06-17T02:47:12.562Z,29.27
2018-06-17T02:49:42.541Z,21.70
2018-06-17T02:52:16.148Z,25.27
2018-06-17T02:54:45.365Z,22.50
2018-06-17T02:57:14.983Z,23.10
2018-06-17T02:59:43.878Z,23.87
2018-06-17T03:02:12.801Z,24.80
2018-06-17T03:04:41.310Z,22.47
2018-06-17T03:07:09.434Z,26.63
2018-06-17T03:09:37.699Z,23.03
2018-06-17T03:12:08.596Z,29.80
2018-06-17T03:14:37.007Z,24.93
2018-06-17T03:17:05.366Z,24.57
2018-06-17T03:19:33.498Z,27.40
2018-06-17T03:22:01.918Z,30.30
2018-06-17T03:24:36.265Z,24.23
2018-06-17T03:27:09.844Z,23.63
2018-06-17T03:29:43.772Z,25.50
2018-06-17T03:32:17.148Z,26.70
2018-06-17T03:34:47.656Z,26.73
2018-06-17T03:37:15.894Z,27.00
2018-06-17T03:39:44.025Z,28.83
2018-06-17T03:42:12.538Z,28.87
2018-06-17T03:44:40.967Z,25.67
2018-06-17T03:47:09.390Z,24.47
2018-06-17T03:49:37.863Z,23.87
2018-06-17T03:52:06.057Z,31.80
2018-06-17T03:54:34.475Z,28.50
2018-06-17T03:57:03.419Z,27.10
2018-06-17T03:59:31.550Z,28.33
2018-06-17T04:01:59.973Z,30.93
2018-06-17T04:04:28.275Z,28.47
2018-06-17T04:06:56.697Z,25.77
2018-06-17T04:09:25.129Z,29.63
2018-06-17T04:11:53.536Z,23.40
2018-06-17T04:14:21.921Z,25.30
2018-06-17T04:16:50.323Z,44.70
2018-06-17T04:19:18.763Z,28.97
2018-06-17T04:21:47.141Z,24.73
2018-06-17T04:24:15.252Z,27.00
2018-06-17T04:26:43.661Z,35.37
2018-06-17T04:29:12.075Z,26.30
2018-06-17T04:31:40.500Z,25.90
2018-06-17T04:34:08.941Z,25.87
2018-06-17T04:36:37.360Z,27.57
2018-06-17T04:39:06.844Z,30.27
2018-06-17T04:41:35.208Z,26.83
2018-06-17T04:44:03.342Z,30.93
2018-06-17T04:46:32.056Z,27.43
2018-06-17T04:49:00.491Z,22.93
2018-06-17T04:51:28.887Z,26.83
2018-06-17T04:53:57.292Z,27.03
2018-06-17T04:56:25.579Z,29.73
2018-06-17T04:58:54.097Z,25.27
2018-06-17T05:01:22.202Z,30.40
2018-06-17T05:03:50.315Z,30.10
2018-06-17T05:06:18.757Z,28.43
2018-06-17T05:08:46.997Z,28.43
2018-06-17T05:11:15.390Z,30.43
2018-06-17T05:13:43.862Z,27.50
2018-06-17T05:16:12.280Z,26.97
2018-06-17T05:18:40.735Z,26.50
2018-06-17T05:21:09.152Z,26.90
2018-06-17T05:23:37.294Z,27.47
2018-06-17T05:26:05.415Z,24.80
2018-06-17T05:28:33.881Z,22.93
2018-06-17T05:31:02.331Z,28.23
2018-06-17T05:33:30.486Z,25.33
2018-06-17T05:35:59.043Z,28.77
2018-06-17T05:38:27.198Z,22.30
2018-06-17T05:40:55.317Z,18.60
2018-06-17T05:43:23.445Z,21.63
2018-06-17T05:45:51.890Z,25.93
2018-06-17T05:48:20.326Z,29.20
2018-06-17T05:50:48.435Z,24.73
2018-06-17T05:53:16.880Z,23.03
2018-06-17T05:55:45.338Z,23.10
2018-06-17T05:58:13.718Z,17.83
2018-06-17T06:00:42.172Z,21.73
2018-06-17T06:03:10.592Z,22.00
2018-06-17T06:05:39.042Z,18.70
2018-06-17T06:08:07.136Z,23.23
2018-06-17T06:10:35.572Z,19.40
2018-06-17T06:13:04.087Z,26.60
2018-06-17T06:15:32.694Z,21.90
2018-06-17T06:18:01.552Z,18.90
2018-06-17T06:20:29.992Z,18.30
2018-06-17T06:22:58.532Z,19.60
2018-06-17T06:25:26.696Z,18.30
2018-06-17T06:27:55.184Z,21.03
2018-06-17T06:30:23.630Z,17.40
2018-06-17T06:32:52.228Z,16.03
2018-06-17T06:35:20.665Z,15.57
2018-06-17T06:37:48.799Z,19.90
2018-06-17T06:40:17.234Z,17.40
2018-06-17T06:42:45.796Z,15.80
2018-06-17T06:45:14.213Z,16.73
2018-06-17T06:47:42.638Z,19.37
2018-06-17T06:50:11.079Z,17.37
2018-06-17T06:52:39.805Z,13.03
2018-06-17T06:55:08.219Z,15.07
2018-06-17T06:57:36.720Z,12.63
2018-06-17T07:00:05.444Z,14.03
2018-06-17T07:02:39.171Z,17.73
2018-06-17T07:05:18.722Z,17.67
2018-06-17T07:07:58.458Z,14.03
2018-06-17T07:10:28.177Z,13.70
2018-06-17T07:12:56.598Z,17.33
2018-06-17T07:15:37.544Z,12.73
2018-06-17T07:18:11.386Z,15.10
2018-06-17T07:20:40.199Z,16.60
2018-06-17T07:23:08.695Z,14.07
2018-06-17T07:26:48.968Z,15.60
2018-06-17T07:29:30.186Z,13.00
2018-06-17T07:31:58.748Z,13.23
2018-06-17T07:34:27.625Z,14.43
2018-06-17T07:36:56.098Z,12.13
2018-06-17T07:41:36.788Z,12.80
2018-06-17T07:44:05.358Z,11.90
2018-06-17T07:46:33.503Z,12.27
2018-06-17T07:49:36.139Z,12.03
2018-06-17T07:52:16.800Z,10.13
2018-06-17T07:54:45.682Z,9.97
2018-06-17T07:57:15.397Z,10.03
2018-06-17T07:59:44.349Z,10.90
2018-06-17T08:02:13.011Z,10.03
2018-06-17T08:04:41.427Z,13.07
2018-06-17T08:07:09.588Z,14.20
2018-06-17T08:09:37.721Z,11.27
2018-06-17T08:12:06.262Z,11.10
2018-06-17T08:14:34.825Z,11.47
2018-06-17T08:17:03.302Z,9.10
2018-06-17T08:19:31.811Z,11.00
2018-06-17T08:22:01.495Z,13.43
2018-06-17T08:24:30.780Z,10.20
2018-06-17T08:26:59.011Z,8.70
2018-06-17T08:29:27.575Z,9.30
2018-06-17T08:31:56.961Z,8.27
2018-06-17T08:34:26.037Z,8.47
2018-06-17T08:36:54.273Z,8.73
2018-06-17T08:39:23.868Z,8.43
2018-06-17T08:41:52.497Z,7.37
2018-06-17T08:44:21.184Z,9.90
2018-06-17T08:46:49.909Z,11.13
2018-06-17T08:49:18.633Z,9.27
2018-06-17T08:51:46.804Z,7.73
2018-06-17T08:54:15.443Z,8.07
2018-06-17T08:56:43.879Z,8.40
2018-06-17T08:59:12.357Z,10.63
2018-06-17T09:01:40.524Z,12.53
2018-06-17T09:04:08.695Z,10.37
2018-06-17T09:06:37.121Z,8.90
2018-06-17T09:09:10.184Z,7.50
2018-06-17T09:11:38.314Z,9.93
2018-06-17T09:14:07.227Z,10.37
2018-06-17T09:16:35.672Z,6.93
2018-06-17T09:19:04.270Z,8.20
2018-06-17T09:21:32.796Z,7.97
2018-06-17T09:24:01.321Z,9.93
2018-06-17T09:26:29.798Z,12.10
2018-06-17T09:28:58.460Z,8.90
2018-06-17T09:31:26.915Z,12.50
2018-06-17T09:33:55.369Z,7.60
2018-06-17T09:36:23.800Z,8.90
2018-06-17T09:38:52.204Z,6.37
2018-06-17T09:41:20.575Z,6.90
2018-06-17T09:43:49.004Z,7.00
2018-06-17T09:46:17.520Z,10.60
2018-06-17T09:48:46.739Z,6.90
2018-06-17T09:51:15.234Z,8.30
2018-06-17T09:53:44.179Z,6.87
2018-06-17T09:56:12.699Z,9.90
2018-06-17T09:58:40.802Z,6.83
2018-06-17T10:01:08.932Z,6.60
2018-06-17T10:03:37.317Z,8.27
2018-06-17T10:06:05.801Z,6.40
2018-06-17T10:08:34.276Z,5.77
2018-06-17T10:11:05.458Z,8.03
2018-06-17T10:13:35.105Z,5.30
2018-06-17T10:16:03.640Z,7.97
2018-06-17T10:18:31.965Z,4.60
2018-06-17T10:21:00.638Z,4.80
2018-06-17T10:23:29.077Z,5.43
2018-06-17T10:25:57.647Z,8.73
2018-06-17T10:28:27.116Z,6.53
2018-06-17T10:30:57.081Z,18.13
2018-06-17T10:33:25.615Z,5.10
2018-06-17T10:35:53.780Z,5.47
2018-06-17T10:38:21.916Z,6.30
2018-06-17T10:40:50.362Z,7.13
2018-06-17T10:43:28.287Z,7.00
2018-06-17T10:45:56.951Z,5.73
2018-06-17T10:48:25.488Z,6.37
2018-06-17T10:50:53.660Z,6.70
2018-06-17T10:53:22.617Z,7.40
2018-06-17T10:55:51.420Z,5.53
2018-06-17T10:58:20.246Z,5.43
2018-06-17T11:00:48.699Z,6.63
2018-06-17T11:03:17.118Z,5.63
2018-06-17T11:05:45.246Z,5.93
2018-06-17T11:08:13.671Z,10.53
2018-06-17T11:10:41.831Z,11.43
2018-06-17T11:13:10.417Z,5.70
2018-06-17T11:15:38.879Z,4.73
2018-06-17T11:18:07.397Z,5.10
2018-06-17T11:20:35.607Z,5.53
2018-06-17T11:23:04.074Z,6.00
2018-06-17T11:25:32.506Z,5.73
2018-06-17T11:28:00.975Z,5.30
2018-06-17T11:30:29.489Z,5.17
2018-06-17T11:32:57.961Z,7.20
2018-06-17T11:35:26.765Z,5.60
2018-06-17T11:37:54.898Z,7.77
2018-06-17T11:40:23.487Z,7.07
2018-06-17T11:42:52.092Z,4.90
2018-06-17T11:45:20.602Z,6.30
2018-06-17T11:47:49.141Z,5.43
2018-06-17T11:50:17.800Z,5.30
2018-06-17T11:52:46.572Z,8.30
2018-06-17T11:55:15.046Z,5.40
2018-06-17T11:57:44.179Z,5.70
2018-06-17T12:00:12.651Z,11.57
2018-06-17T12:02:41.061Z,7.50
2018-06-17T12:05:09.256Z,5.40
2018-06-17T12:07:38.709Z,7.13
2018-06-17T12:10:07.208Z,4.77
2018-06-17T12:12:35.659Z,5.47
2018-06-17T12:15:03.943Z,5.00
2018-06-17T12:17:32.415Z,4.93
2018-06-17T12:20:00.848Z,7.20
2018-06-17T12:22:29.321Z,5.77
2018-06-17T12:24:57.796Z,6.30
2018-06-17T12:27:26.267Z,6.00
2018-06-17T12:29:54.765Z,8.23
2018-06-17T12:32:23.181Z,5.07
2018-06-17T12:34:51.647Z,5.93
2018-06-17T12:37:20.195Z,5.60
2018-06-17T12:39:48.451Z,5.63
2018-06-17T12:42:16.961Z,5.63
2018-06-17T12:44:45.393Z,5.43
2018-06-17T12:47:13.600Z,5.60
2018-06-17T12:49:42.235Z,5.90
2018-06-17T12:52:12.225Z,7.97
2018-06-17T12:54:42.123Z,6.93
2018-06-17T12:57:10.325Z,5.50
2018-06-17T12:59:38.492Z,6.93
2018-06-17T13:02:06.645Z,6.87
2018-06-17T13:04:35.133Z,5.57
2018-06-17T13:07:03.610Z,5.50
2018-06-17T13:09:31.805Z,6.33
2018-06-17T13:11:59.936Z,13.33
2018-06-17T13:14:28.712Z,7.50
2018-06-17T13:16:57.149Z,4.97
2018-06-17T13:19:25.749Z,6.27
2018-06-17T13:21:54.214Z,5.17
2018-06-17T13:24:22.688Z,6.17
2018-06-17T13:26:51.270Z,5.80
2018-06-17T13:29:19.747Z,7.43
2018-06-17T13:31:48.260Z,8.00
2018-06-17T13:34:16.757Z,8.60
2018-06-17T13:36:45.169Z,8.67
2018-06-17T13:39:13.631Z,8.17
2018-06-17T13:41:42.058Z,8.60
2018-06-17T13:44:10.510Z,8.70
2018-06-17T13:46:38.612Z,7.57
2018-06-17T13:49:07.334Z,7.70
2018-06-17T13:51:35.473Z,15.20
2018-06-17T13:54:03.960Z,8.87
2018-06-17T13:56:32.420Z,9.50
2018-06-17T13:59:00.867Z,8.03
2018-06-17T14:01:29.316Z,11.60
2018-06-17T14:03:57.763Z,9.37
2018-06-17T14:06:26.233Z,8.87
2018-06-17T14:08:54.345Z,10.20
2018-06-17T14:11:22.496Z,8.67
2018-06-17T14:13:51.334Z,11.70
2018-06-17T14:16:19.813Z,8.50
2018-06-17T14:18:47.972Z,15.23
2018-06-17T14:21:18.451Z,19.23
2018-06-17T14:23:46.612Z,25.83
2018-06-17T14:26:15.051Z,9.13
2018-06-17T14:28:43.164Z,77.37
2018-06-17T14:31:11.648Z,19.90
2018-06-17T14:33:40.135Z,29.90
2018-06-17T14:36:08.624Z,19.23
2018-06-17T14:38:37.054Z,12.10
2018-06-17T14:41:10.787Z,13.93
2018-06-17T14:43:44.372Z,19.97
2018-06-17T14:46:18.213Z,34.47
2018-06-17T14:48:52.082Z,7.33
2018-06-17T14:51:25.845Z,9.03
2018-06-17T14:53:53.981Z,6.60
2018-06-17T14:56:22.434Z,7.30
2018-06-17T14:58:50.933Z,8.50
2018-06-17T15:01:19.502Z,9.30
2018-06-17T15:03:47.979Z,8.87
2018-06-17T15:06:16.653Z,8.40
2018-06-17T15:08:45.651Z,6.30
2018-06-17T15:11:14.746Z,15.23
2018-06-17T15:13:42.942Z,9.13
2018-06-17T15:16:11.407Z,6.67
2018-06-17T15:18:39.873Z,7.90
2018-06-17T15:21:08.020Z,8.43
2018-06-17T15:23:36.603Z,9.67
2018-06-17T15:26:05.538Z,10.90
2018-06-17T15:28:34.607Z,8.17
2018-06-17T15:31:08.504Z,9.40
2018-06-17T15:34:43.308Z,7.60
2018-06-17T15:37:17.016Z,9.00
2018-06-17T15:39:47.610Z,6.47
2018-06-17T15:42:16.211Z,6.43
2018-06-17T15:44:44.546Z,8.90
2018-06-17T15:47:12.779Z,6.80
2018-06-17T15:49:41.816Z,7.83
2018-06-17T15:52:10.398Z,7.20
2018-06-17T15:54:39.558Z,9.47
2018-06-17T15:57:08.080Z,6.63
2018-06-17T15:59:36.259Z,7.03
2018-06-17T16:02:04.479Z,6.87
2018-06-17T16:04:32.683Z,5.67
2018-06-17T16:07:00.839Z,8.10
2018-06-17T16:09:29.383Z,6.93
2018-06-17T16:12:03.195Z,5.73
2018-06-17T16:14:37.185Z,6.40
2018-06-17T16:17:11.240Z,6.87
2018-06-17T16:19:45.673Z,12.40
2018-06-17T16:22:14.553Z,6.53
2018-06-17T16:24:43.073Z,7.53
2018-06-17T16:27:11.275Z,6.73
2018-06-17T16:29:39.860Z,7.93
2018-06-17T16:32:08.484Z,6.90
2018-06-17T16:34:37.015Z,8.87
2018-06-17T16:37:05.971Z,7.20
2018-06-17T16:39:34.333Z,19.63
2018-06-17T16:42:03.007Z,7.73
2018-06-17T16:44:31.485Z,8.27
2018-06-17T16:46:59.609Z,8.57
2018-06-17T16:49:28.076Z,9.10
2018-06-17T16:52:01.662Z,7.57
2018-06-17T16:54:35.482Z,7.80
2018-06-17T16:57:09.753Z,9.43
2018-06-17T16:59:43.220Z,6.57
2018-06-17T17:02:11.632Z,6.20
2018-06-17T17:04:40.459Z,7.37
2018-06-17T17:07:08.617Z,10.00
2018-06-17T17:09:37.201Z,8.07
2018-06-17T17:12:05.429Z,8.23
2018-06-17T17:14:33.545Z,12.23
2018-06-17T17:17:03.408Z,8.10
2018-06-17T17:19:32.880Z,6.30
2018-06-17T17:22:02.184Z,7.73
2018-06-17T17:24:30.790Z,7.67
2018-06-17T17:26:59.307Z,9.20
2018-06-17T17:29:28.718Z,6.63
2018-06-17T17:32:02.273Z,6.30
2018-06-17T17:34:35.754Z,6.20
2018-06-17T17:37:09.670Z,7.20
2018-06-17T17:39:43.569Z,7.40
2018-06-17T17:42:12.542Z,7.53
2018-06-17T17:44:46.663Z,7.67
2018-06-17T17:47:20.266Z,9.90
2018-06-17T17:49:49.452Z,11.23
2018-06-17T17:52:17.923Z,8.07
2018-06-17T17:54:46.108Z,7.50
2018-06-17T17:57:14.654Z,9.33
2018-06-17T17:59:42.869Z,7.30
2018-06-17T18:02:11.348Z,8.63
2018-06-17T18:04:39.542Z,6.77
2018-06-17T18:07:07.929Z,8.13
2018-06-17T18:09:37.038Z,6.70
2018-06-17T18:12:06.797Z,13.40
2018-06-17T18:14:35.308Z,11.10
2018-06-17T18:17:05.246Z,9.60
2018-06-17T18:19:34.876Z,11.23
2018-06-17T18:22:05.186Z,7.97
2018-06-17T18:24:33.902Z,8.33
2018-06-17T18:27:07.581Z,8.00
2018-06-17T18:29:42.417Z,8.67
2018-06-17T18:32:16.029Z,9.20
2018-06-17T18:34:50.166Z,7.77
2018-06-17T18:37:19.019Z,8.87
2018-06-17T18:39:47.573Z,7.77
2018-06-17T18:42:15.780Z,12.27
2018-06-17T18:44:44.282Z,17.33
2018-06-17T18:47:12.945Z,8.27
2018-06-17T18:49:41.149Z,11.77
2018-06-17T18:52:09.402Z,9.73
2018-06-17T18:54:37.727Z,9.17
2018-06-17T18:57:06.013Z,8.47
2018-06-17T18:59:34.201Z,13.57
2018-06-17T19:02:02.813Z,7.90
2018-06-17T19:04:30.986Z,12.30
2018-06-17T19:06:59.251Z,8.60
2018-06-17T19:09:32.952Z,8.07
2018-06-17T19:12:08.563Z,7.87
2018-06-17T19:14:42.172Z,10.37
2018-06-17T19:17:16.109Z,9.70
2018-06-17T19:19:48.112Z,10.20
2018-06-17T19:22:17.812Z,8.60
2018-06-17T19:24:46.351Z,13.63
2018-06-17T19:27:16.191Z,9.80
2018-06-17T19:29:44.744Z,10.43
2018-06-17T19:32:13.322Z,8.37
2018-06-17T19:34:41.722Z,12.47
2018-06-17T19:37:10.639Z,14.77
2018-06-17T19:39:39.332Z,9.37
2018-06-17T19:42:08.917Z,10.17
2018-06-17T19:44:38.292Z,8.97
2018-06-17T19:47:06.974Z,9.37
2018-06-17T19:49:40.526Z,9.77
2018-06-17T19:52:14.483Z,8.43
2018-06-17T19:54:48.571Z,7.97
2018-06-17T19:57:23.001Z,7.80
2018-06-17T19:59:56.719Z,9.17
2018-06-17T20:02:25.954Z,12.03
2018-06-17T20:04:54.152Z,10.33
2018-06-17T20:07:23.958Z,7.83
2018-06-17T20:09:53.516Z,10.17
2018-06-17T20:12:21.709Z,9.50
2018-06-17T20:14:50.051Z,9.70
2018-06-17T20:17:19.482Z,13.33
2018-06-17T20:19:47.794Z,12.53
2018-06-17T20:22:16.000Z,17.27
2018-06-17T20:24:45.220Z,12.27
2018-06-17T20:27:13.395Z,8.90
2018-06-17T20:29:42.275Z,9.30
2018-06-17T20:32:16.105Z,10.97
2018-06-17T20:34:49.709Z,14.13
2018-06-17T20:37:23.605Z,9.47
2018-06-17T20:40:57.204Z,8.83
2018-06-17T20:43:30.812Z,15.07
2018-06-17T20:45:59.633Z,8.87
2018-06-17T20:48:29.200Z,10.80
2018-06-17T20:50:57.762Z,12.57
2018-06-17T20:53:25.919Z,11.97
2018-06-17T20:55:54.091Z,12.03
2018-06-17T20:58:22.615Z,9.20
2018-06-17T21:00:50.813Z,9.67
2018-06-17T21:03:19.876Z,7.63
2018-06-17T21:05:48.403Z,9.80
2018-06-17T21:08:16.544Z,9.87
2018-06-17T21:10:45.905Z,10.30
2018-06-17T21:13:14.029Z,10.70
2018-06-17T21:15:42.211Z,8.57
2018-06-17T21:18:10.673Z,12.47
2018-06-17T21:20:44.441Z,9.33
2018-06-17T21:23:18.284Z,8.53
2018-06-17T21:25:51.708Z,9.17
2018-06-17T21:28:20.155Z,7.90
2018-06-17T21:30:48.352Z,13.70
2018-06-17T21:33:16.718Z,9.00
2018-06-17T21:35:44.835Z,8.10
2018-06-17T21:38:12.975Z,8.03
2018-06-17T21:40:41.429Z,7.70
2018-06-17T21:43:09.877Z,14.40
2018-06-17T21:45:38.301Z,6.63
2018-06-17T21:48:06.725Z,12.00
2018-06-17T21:50:34.875Z,15.13
2018-06-17T21:53:02.999Z,14.67
2018-06-17T21:55:31.429Z,10.13
2018-06-17T21:57:59.567Z,8.93
2018-06-17T22:00:27.696Z,11.33
2018-06-17T22:02:56.110Z,13.63
2018-06-17T22:05:24.269Z,11.23
2018-06-17T22:07:58.105Z,11.83
2018-06-17T22:10:31.919Z,10.63
2018-06-17T22:13:01.233Z,11.20
2018-06-17T22:15:34.931Z,13.77
2018-06-17T22:18:03.505Z,13.30
2018-06-17T22:20:31.541Z,24.10
2018-06-17T22:22:59.964Z,18.57
2018-06-17T22:25:28.059Z,18.23
2018-06-17T22:27:56.481Z,15.00
2018-06-17T22:30:24.603Z,14.63
2018-06-17T22:32:52.763Z,15.80
2018-06-17T22:35:21.227Z,20.80
2018-06-17T22:37:50.036Z,14.67
2018-06-17T22:40:18.562Z,19.53
2018-06-17T22:42:46.660Z,17.63
2018-06-17T22:45:15.265Z,20.03
2018-06-17T22:47:49.039Z,15.40
2018-06-17T22:50:17.144Z,14.13
2018-06-17T22:52:51.541Z,15.57
2018-06-17T22:55:19.683Z,12.70
2018-06-17T22:57:53.375Z,16.30
2018-06-17T23:00:27.272Z,12.60
2018-06-17T23:03:00.834Z,13.60
2018-06-17T23:05:34.561Z,21.97
2018-06-17T23:08:08.001Z,15.40
2018-06-17T23:10:36.162Z,15.97
2018-06-17T23:13:04.588Z,18.53
2018-06-17T23:15:33.064Z,18.43
2018-06-17T23:18:01.558Z,12.93
2018-06-17T23:20:30.132Z,18.57
2018-06-17T23:22:58.236Z,17.57
2018-06-17T23:25:26.662Z,15.27
2018-06-17T23:27:54.778Z,13.00
2018-06-17T23:30:22.933Z,15.33
2018-06-17T23:32:51.402Z,13.23
2018-06-17T23:35:19.850Z,19.17
2018-06-17T23:37:48.278Z,17.87
2018-06-17T23:40:16.361Z,14.90
2018-06-17T23:42:44.484Z,21.50
2018-06-17T23:45:12.910Z,17.40
2018-06-17T23:47:46.614Z,24.20
2018-06-17T23:51:17.974Z,22.47
2018-06-17T23:53:51.480Z,20.30
2018-06-17T23:56:19.901Z,14.93
2018-06-17T23:58:48.010Z,12.03
